createdAt,value
2023-04-27T00:00:17.992Z,1.80
2023-04-27T00:01:18.188Z,1.90
2023-04-27T00:02:17.995Z,2.30
2023-04-27T00:03:18.207Z,2.00
2023-04-27T00:04:18.106Z,1.40
2023-04-27T00:05:18.282Z,1.70
2023-04-27T00:06:17.950Z,1.70
2023-04-27T00:07:17.986Z,1.60
2023-04-27T00:08:17.931Z,2.10
2023-04-27T00:09:18.098Z,1.50
2023-04-27T00:10:17.869Z,1.40
2023-04-27T00:11:18.034Z,1.80
2023-04-27T00:12:17.888Z,1.70
2023-04-27T00:13:18.052Z,1.60
2023-04-27T00:14:17.918Z,1.60
2023-04-27T00:15:18.060Z,1.70
2023-04-27T00:16:18.612Z,1.80
2023-04-27T00:17:17.917Z,1.70
2023-04-27T00:18:17.927Z,1.80
2023-04-27T00:19:17.728Z,2.20
2023-04-27T00:20:17.934Z,2.40
2023-04-27T00:21:17.751Z,1.70
2023-04-27T00:22:17.766Z,1.90
2023-04-27T00:23:17.966Z,2.30
2023-04-27T00:24:17.664Z,1.80
2023-04-27T00:25:17.936Z,1.50
2023-04-27T00:26:17.688Z,1.80
2023-04-27T00:27:17.984Z,1.90
2023-04-27T00:28:17.588Z,2.10
2023-04-27T00:29:18.549Z,1.60
2023-04-27T00:30:17.583Z,1.80
2023-04-27T00:31:18.654Z,2.10
2023-04-27T00:32:17.661Z,2.10
2023-04-27T00:33:17.773Z,1.80
2023-04-27T00:34:17.584Z,1.60
2023-04-27T00:35:17.690Z,1.70
2023-04-27T00:36:17.470Z,1.80
2023-04-27T00:37:18.639Z,1.40
2023-04-27T00:38:17.438Z,1.60
2023-04-27T00:39:19.066Z,1.60
2023-04-27T00:40:17.434Z,1.80
2023-04-27T00:41:17.526Z,1.80
2023-04-27T00:42:17.401Z,1.60
2023-04-27T00:43:17.510Z,1.60
2023-04-27T00:44:17.507Z,1.70
2023-04-27T00:45:17.406Z,1.40
2023-04-27T00:46:17.481Z,1.80
2023-04-27T00:47:17.386Z,1.60
2023-04-27T00:48:17.541Z,1.50
2023-04-27T00:49:17.326Z,1.60
2023-04-27T00:50:18.473Z,1.80
2023-04-27T00:51:17.338Z,1.60
2023-04-27T00:52:17.358Z,1.70
2023-04-27T00:53:17.293Z,1.50
2023-04-27T00:54:17.373Z,1.70
2023-04-27T00:55:17.234Z,1.70
2023-04-27T00:56:17.446Z,1.80
2023-04-27T00:57:17.221Z,1.60
2023-04-27T00:58:17.318Z,2.00
2023-04-27T00:59:17.227Z,1.80
2023-04-27T01:00:17.194Z,1.70
2023-04-27T01:01:17.446Z,1.60
2023-04-27T01:02:17.198Z,1.60
2023-04-27T01:03:17.386Z,1.70
2023-04-27T01:04:17.352Z,1.60
2023-04-27T01:05:17.159Z,1.70
2023-04-27T01:06:17.122Z,1.80
2023-04-27T01:07:18.122Z,1.90
2023-04-27T01:08:17.040Z,2.10
2023-04-27T01:09:17.198Z,2.00
2023-04-27T01:10:17.020Z,1.90
2023-04-27T01:11:17.235Z,1.80
2023-04-27T01:12:17.029Z,2.30
2023-04-27T01:13:17.127Z,2.30
2023-04-27T01:14:16.979Z,1.90
2023-04-27T01:15:17.109Z,1.80
2023-04-27T01:16:16.995Z,1.90
2023-04-27T01:17:17.086Z,2.00
2023-04-27T01:18:16.939Z,2.10
2023-04-27T01:19:17.054Z,2.00
2023-04-27T01:20:17.153Z,2.30
2023-04-27T01:21:16.911Z,2.50
2023-04-27T01:22:17.001Z,2.10
2023-04-27T01:23:17.465Z,2.60
2023-04-27T01:24:16.964Z,3.50
2023-04-27T01:25:16.887Z,2.30
2023-04-27T01:26:16.904Z,2.00
2023-04-27T01:27:16.847Z,1.90
2023-04-27T01:28:16.962Z,2.20
2023-04-27T01:29:16.812Z,2.10
2023-04-27T01:30:16.913Z,2.20
2023-04-27T01:31:16.805Z,2.30
2023-04-27T01:32:17.010Z,2.50
2023-04-27T01:33:16.785Z,2.40
2023-04-27T01:34:16.842Z,2.60
2023-04-27T01:35:16.856Z,2.20
2023-04-27T01:36:16.707Z,2.00
2023-04-27T01:37:16.870Z,2.40
2023-04-27T01:38:16.698Z,2.20
2023-04-27T01:39:16.785Z,2.20
2023-04-27T01:40:16.648Z,2.50
2023-04-27T01:41:16.699Z,2.20
2023-04-27T01:42:16.613Z,2.00
2023-04-27T01:43:16.757Z,2.10
2023-04-27T01:44:16.653Z,2.50
2023-04-27T01:45:16.726Z,2.10
2023-04-27T01:46:16.648Z,2.00
2023-04-27T01:47:16.737Z,2.20
2023-04-27T01:48:16.563Z,2.40
2023-04-27T01:49:17.002Z,2.10
2023-04-27T01:50:16.510Z,2.20
2023-04-27T01:51:16.582Z,2.10
2023-04-27T01:52:16.488Z,1.80
2023-04-27T01:53:16.586Z,2.20
2023-04-27T01:54:16.492Z,1.90
2023-04-27T01:55:16.643Z,2.40
2023-04-27T01:56:16.635Z,2.20
2023-04-27T01:57:16.450Z,2.30
2023-04-27T01:58:16.597Z,2.20
2023-04-27T01:59:16.442Z,2.30
2023-04-27T02:00:16.609Z,2.10
2023-04-27T02:01:16.590Z,2.00
2023-04-27T02:02:16.420Z,2.30
2023-04-27T02:03:16.556Z,2.30
2023-04-27T02:04:16.520Z,2.70
2023-04-27T02:05:16.453Z,2.10
2023-04-27T02:06:16.500Z,2.30
2023-04-27T02:07:16.344Z,2.00
2023-04-27T02:08:16.383Z,2.30
2023-04-27T02:09:16.423Z,2.60
2023-04-27T02:10:16.388Z,2.00
2023-04-27T02:11:16.304Z,2.10
2023-04-27T02:12:16.403Z,2.50
2023-04-27T02:13:16.249Z,2.70
2023-04-27T02:14:16.301Z,2.10
2023-04-27T02:15:16.269Z,2.10
2023-04-27T02:16:16.357Z,2.30
2023-04-27T02:17:16.200Z,2.60
2023-04-27T02:18:16.231Z,2.20
2023-04-27T02:19:16.602Z,2.50
2023-04-27T02:20:16.290Z,2.20
2023-04-27T02:21:16.183Z,2.60
2023-04-27T02:22:16.139Z,2.60
2023-04-27T02:23:16.129Z,2.20
2023-04-27T02:24:16.167Z,2.40
2023-04-27T02:25:16.102Z,2.50
2023-04-27T02:26:16.214Z,1.90
2023-04-27T02:27:16.089Z,2.10
2023-04-27T02:28:16.196Z,2.60
2023-04-27T02:29:16.272Z,1.80
2023-04-27T02:30:16.120Z,2.10
2023-04-27T02:31:16.086Z,2.60
2023-04-27T02:32:16.120Z,2.00
2023-04-27T02:33:16.009Z,1.90
2023-04-27T02:34:16.031Z,2.40
2023-04-27T02:35:15.996Z,2.40
2023-04-27T02:36:16.040Z,2.10
2023-04-27T02:37:15.953Z,2.30
2023-04-27T02:38:16.017Z,2.20
2023-04-27T02:39:16.579Z,2.20
2023-04-27T02:40:15.975Z,2.30
2023-04-27T02:41:15.899Z,2.20
2023-04-27T02:42:16.082Z,2.10
2023-04-27T02:43:15.889Z,2.60
2023-04-27T02:44:15.939Z,2.20
2023-04-27T02:45:15.850Z,2.20
2023-04-27T02:46:16.055Z,2.10
2023-04-27T02:47:15.831Z,1.80
2023-04-27T02:48:16.640Z,2.30
2023-04-27T02:49:16.192Z,2.30
2023-04-27T02:50:15.832Z,2.00
2023-04-27T02:51:16.626Z,2.00
2023-04-27T02:52:15.870Z,2.00
2023-04-27T02:53:15.761Z,2.10
2023-04-27T02:54:15.856Z,1.90
2023-04-27T02:55:15.781Z,1.80
2023-04-27T02:56:15.881Z,1.90
2023-04-27T02:57:15.690Z,2.20
2023-04-27T02:58:15.781Z,2.10
2023-04-27T02:59:16.053Z,2.20
2023-04-27T03:00:15.747Z,2.00
2023-04-27T03:01:15.704Z,2.30
2023-04-27T03:02:16.553Z,2.40
2023-04-27T03:03:15.752Z,1.90
2023-04-27T03:04:15.965Z,2.00
2023-04-27T03:05:15.638Z,2.00
2023-04-27T03:06:15.743Z,2.30
2023-04-27T03:07:15.555Z,2.00
2023-04-27T03:08:15.763Z,2.00
2023-04-27T03:09:15.846Z,2.00
2023-04-27T03:10:16.640Z,1.70
2023-04-27T03:11:15.602Z,2.40
2023-04-27T03:12:15.620Z,2.20
2023-04-27T03:13:16.435Z,2.20
2023-04-27T03:14:16.048Z,1.90
2023-04-27T03:15:15.575Z,1.90
2023-04-27T03:16:15.439Z,1.90
2023-04-27T03:17:15.537Z,1.90
2023-04-27T03:18:15.527Z,2.20
2023-04-27T03:19:15.619Z,2.20
2023-04-27T03:20:15.549Z,2.20
2023-04-27T03:21:15.525Z,2.10
2023-04-27T03:22:15.526Z,2.30
2023-04-27T03:23:15.375Z,1.80
2023-04-27T03:24:15.534Z,2.20
2023-04-27T03:25:15.339Z,1.90
2023-04-27T03:26:15.508Z,2.10
2023-04-27T03:27:15.273Z,2.10
2023-04-27T03:28:15.490Z,2.00
2023-04-27T03:29:15.530Z,1.80
2023-04-27T03:30:15.399Z,2.20
2023-04-27T03:31:15.262Z,2.00
2023-04-27T03:32:15.364Z,1.90
2023-04-27T03:33:15.226Z,1.90
2023-04-27T03:34:15.311Z,2.10
2023-04-27T03:35:15.161Z,1.80
2023-04-27T03:36:15.316Z,2.20
2023-04-27T03:37:15.163Z,2.50
2023-04-27T03:38:15.294Z,2.00
2023-04-27T03:39:15.811Z,2.30
2023-04-27T03:40:15.134Z,2.20
2023-04-27T03:41:15.271Z,2.10
2023-04-27T03:42:15.127Z,2.40
2023-04-27T03:43:15.184Z,2.20
2023-04-27T03:44:15.198Z,2.00
2023-04-27T03:45:15.033Z,2.30
2023-04-27T03:46:15.161Z,2.40
2023-04-27T03:47:15.042Z,2.10
2023-04-27T03:48:16.115Z,2.20
2023-04-27T03:49:15.302Z,2.30
2023-04-27T03:50:15.000Z,2.40
2023-04-27T03:51:15.143Z,2.10
2023-04-27T03:52:15.891Z,2.20
2023-04-27T03:53:15.194Z,2.40
2023-04-27T03:54:14.967Z,2.20
2023-04-27T03:55:15.170Z,2.40
2023-04-27T03:56:14.959Z,2.70
2023-04-27T03:57:14.983Z,2.40
2023-04-27T03:58:14.911Z,2.30
2023-04-27T03:59:15.295Z,2.20
2023-04-27T04:00:14.916Z,2.10
2023-04-27T04:01:14.951Z,2.30
2023-04-27T04:02:15.015Z,2.50
2023-04-27T04:03:15.188Z,2.20
2023-04-27T04:04:15.123Z,2.60
2023-04-27T04:05:15.220Z,2.10
2023-04-27T04:06:14.848Z,2.40
2023-04-27T04:07:14.838Z,2.60
2023-04-27T04:08:14.802Z,2.30
2023-04-27T04:09:15.098Z,2.50
2023-04-27T04:10:14.748Z,2.10
2023-04-27T04:11:14.883Z,2.30
2023-04-27T04:12:14.800Z,1.90
2023-04-27T04:13:14.895Z,2.30
2023-04-27T04:14:14.718Z,2.20
2023-04-27T04:15:14.807Z,2.10
2023-04-27T04:16:14.732Z,2.60
2023-04-27T04:17:14.756Z,2.10
2023-04-27T04:18:14.662Z,2.40
2023-04-27T04:19:15.134Z,2.00
2023-04-27T04:20:14.854Z,2.50
2023-04-27T04:21:14.571Z,2.50
2023-04-27T04:22:14.719Z,2.40
2023-04-27T04:23:14.569Z,2.30
2023-04-27T04:24:14.667Z,2.20
2023-04-27T04:25:14.535Z,2.40
2023-04-27T04:26:14.708Z,2.30
2023-04-27T04:27:14.556Z,2.10
2023-04-27T04:28:14.703Z,2.50
2023-04-27T04:29:14.722Z,2.20
2023-04-27T04:30:14.741Z,2.40
2023-04-27T04:31:14.486Z,2.30
2023-04-27T04:32:14.663Z,2.40
2023-04-27T04:33:14.431Z,2.50
2023-04-27T04:34:14.686Z,2.90
2023-04-27T04:35:14.406Z,2.50
2023-04-27T04:36:14.648Z,2.20
2023-04-27T04:37:14.361Z,2.20
2023-04-27T04:38:14.609Z,1.90
2023-04-27T04:39:14.507Z,2.10
2023-04-27T04:40:14.577Z,2.50
2023-04-27T04:41:14.492Z,2.20
2023-04-27T04:42:14.346Z,2.00
2023-04-27T04:43:14.419Z,1.90
2023-04-27T04:44:14.337Z,2.40
2023-04-27T04:45:14.442Z,2.50
2023-04-27T04:46:14.585Z,1.90
2023-04-27T04:47:14.246Z,2.10
2023-04-27T04:48:14.434Z,2.30
2023-04-27T04:49:14.545Z,2.50
2023-04-27T04:50:14.333Z,1.80
2023-04-27T04:51:14.335Z,2.40
2023-04-27T04:52:14.246Z,1.90
2023-04-27T04:53:14.398Z,2.10
2023-04-27T04:54:14.214Z,2.20
2023-04-27T04:55:14.272Z,2.40
2023-04-27T04:56:14.173Z,2.10
2023-04-27T04:57:14.279Z,2.50
2023-04-27T04:58:14.133Z,2.30
2023-04-27T04:59:14.373Z,2.10
2023-04-27T05:00:14.176Z,2.10
2023-04-27T05:01:14.278Z,2.20
2023-04-27T05:02:14.120Z,2.20
2023-04-27T05:03:14.337Z,2.30
2023-04-27T05:04:14.221Z,2.40
2023-04-27T05:05:14.279Z,2.20
2023-04-27T05:06:14.067Z,2.80
2023-04-27T05:07:15.277Z,2.10
2023-04-27T05:08:14.073Z,2.40
2023-04-27T05:09:14.491Z,2.40
2023-04-27T05:10:14.080Z,2.20
2023-04-27T05:11:14.068Z,2.30
2023-04-27T05:12:13.995Z,2.40
2023-04-27T05:13:14.089Z,1.90
2023-04-27T05:14:13.970Z,2.60
2023-04-27T05:15:13.997Z,2.30
2023-04-27T05:16:13.966Z,2.30
2023-04-27T05:17:14.047Z,2.10
2023-04-27T05:18:14.053Z,2.10
2023-04-27T05:19:14.825Z,2.00
2023-04-27T05:20:13.848Z,2.10
2023-04-27T05:21:14.047Z,2.30
2023-04-27T05:22:13.947Z,2.00
2023-04-27T05:23:14.038Z,2.30
2023-04-27T05:24:14.098Z,2.20
2023-04-27T05:25:13.805Z,2.20
2023-04-27T05:26:13.982Z,2.30
2023-04-27T05:27:13.800Z,2.40
2023-04-27T05:28:14.077Z,2.00
2023-04-27T05:29:13.924Z,2.80
2023-04-27T05:30:13.911Z,2.50
2023-04-27T05:31:13.729Z,2.40
2023-04-27T05:32:13.998Z,2.50
2023-04-27T05:33:13.651Z,2.30
2023-04-27T05:34:13.932Z,2.30
2023-04-27T05:35:13.632Z,2.60
2023-04-27T05:36:13.750Z,2.70
2023-04-27T05:37:13.618Z,2.40
2023-04-27T05:38:13.751Z,2.20
2023-04-27T05:39:13.718Z,2.30
2023-04-27T05:40:13.773Z,2.30
2023-04-27T05:41:13.554Z,2.40
2023-04-27T05:42:13.746Z,2.50
2023-04-27T05:43:13.665Z,2.30
2023-04-27T05:44:13.596Z,1.90
2023-04-27T05:45:13.743Z,2.30
2023-04-27T05:46:13.555Z,2.20
2023-04-27T05:47:13.585Z,3.00
2023-04-27T05:48:13.628Z,2.20
2023-04-27T05:49:13.685Z,2.40
2023-04-27T05:50:13.698Z,2.40
2023-04-27T05:51:13.433Z,2.20
2023-04-27T05:52:13.544Z,2.20
2023-04-27T05:53:13.421Z,2.10
2023-04-27T05:54:13.624Z,2.10
2023-04-27T05:55:13.399Z,2.10
2023-04-27T05:56:13.600Z,2.40
2023-04-27T05:57:13.351Z,2.60
2023-04-27T05:58:13.518Z,2.30
2023-04-27T05:59:13.738Z,2.10
2023-04-27T06:00:13.602Z,2.80
2023-04-27T06:01:13.320Z,2.60
2023-04-27T06:02:13.446Z,2.30
2023-04-27T06:03:13.494Z,2.30
2023-04-27T06:04:13.620Z,2.20
2023-04-27T06:05:13.308Z,2.00
2023-04-27T06:06:13.423Z,2.10
2023-04-27T06:07:13.600Z,2.30
2023-04-27T06:08:13.453Z,1.80
2023-04-27T06:09:13.402Z,2.10
2023-04-27T06:10:14.140Z,2.10
2023-04-27T06:11:13.185Z,2.20
2023-04-27T06:12:13.314Z,2.40
2023-04-27T06:13:13.151Z,2.10
2023-04-27T06:14:13.317Z,2.00
2023-04-27T06:15:13.178Z,2.10
2023-04-27T06:16:13.353Z,2.20
2023-04-27T06:17:13.107Z,2.10
2023-04-27T06:18:13.320Z,2.30
2023-04-27T06:19:13.409Z,2.30
2023-04-27T06:20:13.152Z,2.10
2023-04-27T06:21:13.319Z,2.50
2023-04-27T06:22:13.158Z,2.50
2023-04-27T06:23:13.250Z,2.10
2023-04-27T06:24:13.048Z,2.40
2023-04-27T06:25:13.183Z,2.40
2023-04-27T06:26:13.052Z,2.40
2023-04-27T06:27:13.108Z,2.80
2023-04-27T06:28:13.021Z,2.50
2023-04-27T06:29:13.574Z,2.30
2023-04-27T06:30:12.965Z,2.20
2023-04-27T06:31:13.301Z,2.20
2023-04-27T06:32:12.927Z,2.90
2023-04-27T06:33:19.067Z,2.50
2023-04-27T06:34:12.891Z,2.60
2023-04-27T06:35:12.938Z,2.60
2023-04-27T06:36:12.890Z,2.60
2023-04-27T06:37:12.904Z,2.20
2023-04-27T06:38:12.870Z,2.20
2023-04-27T06:39:13.235Z,2.50
2023-04-27T06:40:13.054Z,2.20
2023-04-27T06:41:12.775Z,2.40
2023-04-27T06:42:13.068Z,2.40
2023-04-27T06:43:12.798Z,2.00
2023-04-27T06:44:12.884Z,2.30
2023-04-27T06:45:12.886Z,2.50
2023-04-27T06:46:12.808Z,2.10
2023-04-27T06:47:13.012Z,2.20
2023-04-27T06:48:12.802Z,2.20
2023-04-27T06:49:12.989Z,2.30
2023-04-27T06:50:12.821Z,1.90
2023-04-27T06:51:12.664Z,2.40
2023-04-27T06:52:12.896Z,2.20
2023-04-27T06:53:12.627Z,2.20
2023-04-27T06:54:12.764Z,2.10
2023-04-27T06:55:12.611Z,2.30
2023-04-27T06:56:12.898Z,2.30
2023-04-27T06:57:12.558Z,2.20
2023-04-27T06:58:12.746Z,3.10
2023-04-27T06:59:12.696Z,2.50
2023-04-27T07:00:12.762Z,2.50
2023-04-27T07:01:12.577Z,2.10
2023-04-27T07:02:12.831Z,2.20
2023-04-27T07:03:12.670Z,2.60
2023-04-27T07:04:12.734Z,2.50
2023-04-27T07:05:12.700Z,2.30
2023-04-27T07:06:12.667Z,2.60
2023-04-27T07:07:12.449Z,2.10
2023-04-27T07:08:12.650Z,2.50
2023-04-27T07:09:24.045Z,2.30
2023-04-27T07:10:12.495Z,2.40
2023-04-27T07:11:12.818Z,2.70
2023-04-27T07:12:12.447Z,2.70
2023-04-27T07:13:13.317Z,2.70
2023-04-27T07:14:12.563Z,2.40
2023-04-27T07:15:12.806Z,2.00
2023-04-27T07:16:12.447Z,2.10
2023-04-27T07:17:12.552Z,2.30
2023-04-27T07:18:12.323Z,2.50
2023-04-27T07:19:13.329Z,2.40
2023-04-27T07:20:12.329Z,2.80
2023-04-27T07:21:12.417Z,2.20
2023-04-27T07:22:12.331Z,2.60
2023-04-27T07:23:12.445Z,2.20
2023-04-27T07:24:12.378Z,2.50
2023-04-27T07:25:12.347Z,2.60
2023-04-27T07:26:12.310Z,2.20
2023-04-27T07:27:12.366Z,2.90
2023-04-27T07:28:12.218Z,2.40
2023-04-27T07:29:25.560Z,2.60
2023-04-27T07:30:12.199Z,2.40
2023-04-27T07:31:12.419Z,2.20
2023-04-27T07:32:12.440Z,2.30
2023-04-27T07:33:12.143Z,2.60
2023-04-27T07:34:12.311Z,2.60
2023-04-27T07:35:12.121Z,2.30
2023-04-27T07:36:12.225Z,2.50
2023-04-27T07:37:12.336Z,2.80
2023-04-27T07:38:12.065Z,2.50
2023-04-27T07:39:12.625Z,2.40
2023-04-27T07:40:12.000Z,3.20
2023-04-27T07:41:12.260Z,2.50
2023-04-27T07:42:12.012Z,2.60
2023-04-27T07:43:12.197Z,2.50
2023-04-27T07:44:11.998Z,2.10
2023-04-27T07:45:12.088Z,2.40
2023-04-27T07:46:12.042Z,2.30
2023-04-27T07:47:12.113Z,2.70
2023-04-27T07:48:11.997Z,2.40
2023-04-27T07:49:12.201Z,2.30
2023-04-27T07:50:11.885Z,2.10
2023-04-27T07:51:12.042Z,2.40
2023-04-27T07:52:11.880Z,2.00
2023-04-27T07:53:12.111Z,2.60
2023-04-27T07:54:11.847Z,2.40
2023-04-27T07:55:12.067Z,1.90
2023-04-27T07:56:11.837Z,2.20
2023-04-27T07:57:12.083Z,2.00
2023-04-27T07:58:11.822Z,2.30
2023-04-27T07:59:12.479Z,2.20
2023-04-27T08:00:11.751Z,2.50
2023-04-27T08:01:11.961Z,2.40
2023-04-27T08:03:12.072Z,2.00
2023-04-27T08:04:12.360Z,2.70
2023-04-27T08:05:12.202Z,2.50
2023-04-27T08:06:12.244Z,2.20
2023-04-27T08:07:11.952Z,2.40
2023-04-27T08:08:11.964Z,2.30
2023-04-27T08:09:11.964Z,2.50
2023-04-27T08:10:11.736Z,2.30
2023-04-27T08:11:11.628Z,2.20
2023-04-27T08:12:11.739Z,2.20
2023-04-27T08:13:11.643Z,2.60
2023-04-27T08:14:11.720Z,2.40
2023-04-27T08:15:11.595Z,2.20
2023-04-27T08:16:11.642Z,2.00
2023-04-27T08:17:11.563Z,2.60
2023-04-27T08:18:11.640Z,2.00
2023-04-27T08:19:12.062Z,2.20
2023-04-27T08:20:11.595Z,2.20
2023-04-27T08:21:11.629Z,1.90
2023-04-27T08:22:11.472Z,2.10
2023-04-27T08:23:11.710Z,2.40
2023-04-27T08:24:11.656Z,2.00
2023-04-27T08:25:11.542Z,2.60
2023-04-27T08:26:11.505Z,2.10
2023-04-27T08:27:11.451Z,2.20
2023-04-27T08:28:11.460Z,1.80
2023-04-27T08:29:19.874Z,2.20
2023-04-27T08:30:11.415Z,2.40
2023-04-27T08:31:11.540Z,2.20
2023-04-27T08:32:11.359Z,1.70
2023-04-27T08:33:11.568Z,2.20
2023-04-27T08:34:11.578Z,1.90
2023-04-27T08:35:11.562Z,2.10
2023-04-27T08:36:11.393Z,2.20
2023-04-27T08:37:11.338Z,2.10
2023-04-27T08:38:11.277Z,2.30
2023-04-27T08:39:11.507Z,2.10
2023-04-27T08:40:11.343Z,1.90
2023-04-27T08:41:21.419Z,2.50
2023-04-27T08:42:11.243Z,2.20
2023-04-27T08:43:11.373Z,2.00
2023-04-27T08:44:11.226Z,2.50
2023-04-27T08:45:11.417Z,2.20
2023-04-27T08:46:11.186Z,2.40
2023-04-27T08:47:11.225Z,2.60
2023-04-27T08:48:11.197Z,2.50
2023-04-27T08:49:12.015Z,2.60
2023-04-27T08:50:11.162Z,2.80
2023-04-27T08:51:11.339Z,2.10
2023-04-27T08:52:11.097Z,2.50
2023-04-27T08:53:11.222Z,2.10
2023-04-27T08:54:11.074Z,2.40
2023-04-27T08:55:11.247Z,2.00
2023-04-27T08:56:11.048Z,2.30
2023-04-27T08:57:11.265Z,1.80
2023-04-27T08:58:11.090Z,2.00
2023-04-27T08:59:11.184Z,2.20
2023-04-27T09:00:10.981Z,2.40
2023-04-27T09:01:11.081Z,2.30
2023-04-27T09:02:11.117Z,2.20
2023-04-27T09:03:11.352Z,2.10
2023-04-27T09:04:11.099Z,2.20
2023-04-27T09:05:11.273Z,2.40
2023-04-27T09:06:11.143Z,2.30
2023-04-27T09:07:10.926Z,2.30
2023-04-27T09:08:10.926Z,2.00
2023-04-27T09:09:10.939Z,2.00
2023-04-27T09:10:10.957Z,2.60
2023-04-27T09:11:10.872Z,2.10
2023-04-27T09:12:10.978Z,2.50
2023-04-27T09:13:10.835Z,2.40
2023-04-27T09:14:11.083Z,2.30
2023-04-27T09:15:10.811Z,2.20
2023-04-27T09:16:11.045Z,1.80
2023-04-27T09:17:10.895Z,1.90
2023-04-27T09:18:10.791Z,2.30
2023-04-27T09:19:10.896Z,1.90
2023-04-27T09:20:10.847Z,2.10
2023-04-27T09:21:10.809Z,2.30
2023-04-27T09:22:10.826Z,2.30
2023-04-27T09:23:10.700Z,2.00
2023-04-27T09:24:10.829Z,1.90
2023-04-27T09:25:10.675Z,2.10
2023-04-27T09:26:10.901Z,1.80
2023-04-27T09:27:10.816Z,1.80
2023-04-27T09:28:10.626Z,2.00
2023-04-27T09:29:10.725Z,1.70
2023-04-27T09:30:10.600Z,1.50
2023-04-27T09:31:10.774Z,1.40
2023-04-27T09:32:10.676Z,1.70
2023-04-27T09:33:10.596Z,1.50
2023-04-27T09:34:10.690Z,1.90
2023-04-27T09:35:10.576Z,1.40
2023-04-27T09:36:10.833Z,1.50
2023-04-27T09:37:10.549Z,1.60
2023-04-27T09:38:10.625Z,1.40
2023-04-27T09:39:10.537Z,2.00
2023-04-27T09:40:10.610Z,1.60
2023-04-27T09:41:10.505Z,1.10
2023-04-27T09:42:10.570Z,1.50
2023-04-27T09:43:10.484Z,1.50
2023-04-27T09:44:10.567Z,1.50
2023-04-27T09:45:10.454Z,1.40
2023-04-27T09:46:10.806Z,1.30
2023-04-27T09:47:10.395Z,1.70
2023-04-27T09:48:10.484Z,1.40
2023-04-27T09:49:10.374Z,1.30
2023-04-27T09:50:10.503Z,1.40
2023-04-27T09:51:10.392Z,1.20
2023-04-27T09:52:10.525Z,1.40
2023-04-27T09:53:10.447Z,1.40
2023-04-27T09:54:10.326Z,1.40
2023-04-27T09:55:10.493Z,1.30
2023-04-27T09:56:10.278Z,1.20
2023-04-27T09:57:10.426Z,1.40
2023-04-27T09:58:10.319Z,1.10
2023-04-27T09:59:10.396Z,1.20
2023-04-27T10:00:10.407Z,1.60
2023-04-27T10:01:10.268Z,1.10
2023-04-27T10:02:23.560Z,1.40
2023-04-27T10:03:10.295Z,1.10
2023-04-27T10:04:10.603Z,1.40
2023-04-27T10:05:10.459Z,1.60
2023-04-27T10:06:10.211Z,1.50
2023-04-27T10:07:10.181Z,1.70
2023-04-27T10:08:10.335Z,1.30
2023-04-27T10:09:10.154Z,1.10
2023-04-27T10:10:10.166Z,1.50
2023-04-27T10:11:10.079Z,1.30
2023-04-27T10:12:10.197Z,1.20
2023-04-27T10:13:10.062Z,1.40
2023-04-27T10:14:10.202Z,1.30
2023-04-27T10:15:10.052Z,1.30
2023-04-27T10:16:10.231Z,1.40
2023-04-27T10:17:10.099Z,1.40
2023-04-27T10:18:10.251Z,1.40
2023-04-27T10:19:10.198Z,1.70
2023-04-27T10:20:09.952Z,1.40
2023-04-27T10:21:09.991Z,1.40
2023-04-27T10:22:09.946Z,1.60
2023-04-27T10:23:10.640Z,1.30
2023-04-27T10:24:09.911Z,1.50
2023-04-27T10:25:10.098Z,1.50
2023-04-27T10:26:09.879Z,1.40
2023-04-27T10:27:10.046Z,1.40
2023-04-27T10:28:09.863Z,1.90
2023-04-27T10:29:09.980Z,1.90
2023-04-27T10:30:09.795Z,1.50
2023-04-27T10:31:09.991Z,1.40
2023-04-27T10:32:09.795Z,1.50
2023-04-27T10:33:09.997Z,1.40
2023-04-27T10:34:09.773Z,1.30
2023-04-27T10:35:09.907Z,1.00
2023-04-27T10:36:09.804Z,1.20
2023-04-27T10:37:09.847Z,1.00
2023-04-27T10:38:09.748Z,1.00
2023-04-27T10:39:09.830Z,0.80
2023-04-27T10:40:09.831Z,0.80
2023-04-27T10:41:09.738Z,0.90
2023-04-27T10:42:09.750Z,1.00
2023-04-27T10:43:09.668Z,0.90
2023-04-27T10:44:09.799Z,1.00
2023-04-27T10:45:09.783Z,0.70
2023-04-27T10:46:09.641Z,0.90
2023-04-27T10:47:09.650Z,0.70
2023-04-27T10:48:09.649Z,1.00
2023-04-27T10:49:09.699Z,0.80
2023-04-27T10:50:09.540Z,1.10
2023-04-27T10:51:09.625Z,0.70
2023-04-27T10:52:09.553Z,1.20
2023-04-27T10:53:09.681Z,1.00
2023-04-27T10:54:09.539Z,0.90
2023-04-27T10:55:09.531Z,0.70
2023-04-27T10:56:09.469Z,0.80
2023-04-27T10:57:09.502Z,0.80
2023-04-27T10:58:09.485Z,1.20
2023-04-27T10:59:09.572Z,0.80
2023-04-27T11:00:10.118Z,1.10
2023-04-27T11:01:09.620Z,1.00
2023-04-27T11:02:09.462Z,0.80
2023-04-27T11:03:09.610Z,0.90
2023-04-27T11:04:09.429Z,0.70
2023-04-27T11:05:09.524Z,0.90
2023-04-27T11:06:09.606Z,0.70
2023-04-27T11:07:09.414Z,0.70
2023-04-27T11:08:09.410Z,0.70
2023-04-27T11:09:09.349Z,0.60
2023-04-27T11:10:09.388Z,0.60
2023-04-27T11:11:09.371Z,0.70
2023-04-27T11:12:09.401Z,0.70
2023-04-27T11:13:09.352Z,0.80
2023-04-27T11:14:09.356Z,0.90
2023-04-27T11:15:09.265Z,0.70
2023-04-27T11:16:09.340Z,0.60
2023-04-27T11:17:09.244Z,0.60
2023-04-27T11:18:09.279Z,0.60
2023-04-27T11:19:09.222Z,0.50
2023-04-27T11:20:09.279Z,0.60
2023-04-27T11:21:09.194Z,0.90
2023-04-27T11:22:09.254Z,0.60
2023-04-27T11:23:09.188Z,0.70
2023-04-27T11:24:09.225Z,0.70
2023-04-27T11:25:09.139Z,0.70
2023-04-27T11:26:09.349Z,0.60
2023-04-27T11:27:09.244Z,0.80
2023-04-27T11:28:09.058Z,0.80
2023-04-27T11:29:09.189Z,1.20
2023-04-27T11:30:09.131Z,0.90
2023-04-27T11:31:09.241Z,0.90
2023-04-27T11:32:09.034Z,0.90
2023-04-27T11:33:09.212Z,0.80
2023-04-27T11:34:09.101Z,0.90
2023-04-27T11:35:09.211Z,0.90
2023-04-27T11:36:09.104Z,0.90
2023-04-27T11:38:08.928Z,0.70
2023-04-27T11:39:09.136Z,1.10
2023-04-27T11:40:08.956Z,0.80
2023-04-27T11:41:09.964Z,0.90
2023-04-27T11:42:08.967Z,0.70
2023-04-27T11:43:09.163Z,0.80
2023-04-27T11:44:08.914Z,0.90
2023-04-27T11:45:09.085Z,1.00
2023-04-27T11:46:08.883Z,0.90
2023-04-27T11:47:09.325Z,1.00
2023-04-27T11:48:09.016Z,0.70
2023-04-27T11:49:08.992Z,0.80
2023-04-27T11:50:09.082Z,0.80
2023-04-27T11:51:08.769Z,1.10
2023-04-27T11:52:09.021Z,0.70
2023-04-27T11:53:09.046Z,0.80
2023-04-27T11:54:08.814Z,0.70
2023-04-27T11:55:08.827Z,0.70
2023-04-27T11:56:08.711Z,0.90
2023-04-27T11:57:08.821Z,0.80
2023-04-27T11:58:08.674Z,0.70
2023-04-27T11:59:08.737Z,0.70
2023-04-27T12:00:08.708Z,0.70
2023-04-27T12:01:08.767Z,0.60
2023-04-27T12:02:08.728Z,0.80
2023-04-27T12:03:09.022Z,0.80
2023-04-27T12:04:08.813Z,1.00
2023-04-27T12:05:09.214Z,0.70
2023-04-27T12:07:08.770Z,0.90
2023-04-27T12:08:08.618Z,0.80
2023-04-27T12:09:08.781Z,0.80
2023-04-27T12:10:08.613Z,0.90
2023-04-27T12:11:08.762Z,0.80
2023-04-27T12:12:08.597Z,1.00
2023-04-27T12:13:08.860Z,0.80
2023-04-27T12:14:08.700Z,1.00
2023-04-27T12:15:08.709Z,0.90
2023-04-27T12:16:08.685Z,0.80
2023-04-27T12:17:09.185Z,1.00
2023-04-27T12:18:08.764Z,1.30
2023-04-27T12:19:08.475Z,0.80
2023-04-27T12:20:08.684Z,1.10
2023-04-27T12:21:08.722Z,0.80
2023-04-27T12:22:08.632Z,0.90
2023-04-27T12:23:08.443Z,1.30
2023-04-27T12:24:08.706Z,1.00
2023-04-27T12:25:08.436Z,1.00
2023-04-27T12:26:08.378Z,0.80
2023-04-27T12:27:08.459Z,1.20
2023-04-27T12:28:08.406Z,1.00
2023-04-27T12:29:08.505Z,1.10
2023-04-27T12:30:08.496Z,0.90
2023-04-27T12:31:08.421Z,1.00
2023-04-27T12:32:08.383Z,1.00
2023-04-27T12:33:08.284Z,0.90
2023-04-27T12:34:08.430Z,0.80
2023-04-27T12:35:08.427Z,0.60
2023-04-27T12:36:08.509Z,0.80
2023-04-27T12:37:08.301Z,0.80
2023-04-27T12:38:08.183Z,0.90
2023-04-27T12:39:08.384Z,0.80
2023-04-27T12:40:08.713Z,1.10
2023-04-27T12:41:08.284Z,0.70
2023-04-27T12:42:08.187Z,0.80
2023-04-27T12:43:08.226Z,0.70
2023-04-27T12:44:08.120Z,0.80
2023-04-27T12:45:08.333Z,0.70
2023-04-27T12:46:08.170Z,1.00
2023-04-27T12:47:08.285Z,0.90
2023-04-27T12:48:08.080Z,1.00
2023-04-27T12:49:08.283Z,0.70
2023-04-27T12:50:08.025Z,0.80
2023-04-27T12:51:08.093Z,0.80
2023-04-27T12:52:07.993Z,0.70
2023-04-27T12:53:08.115Z,0.80
2023-04-27T12:54:08.021Z,0.70
2023-04-27T12:55:15.175Z,0.70
2023-04-27T12:56:08.198Z,0.80
2023-04-27T12:57:07.931Z,0.80
2023-04-27T12:58:08.185Z,0.90
2023-04-27T12:59:07.925Z,1.20
2023-04-27T13:00:08.078Z,0.90
2023-04-27T13:01:07.915Z,0.70
2023-04-27T13:02:08.041Z,0.70
2023-04-27T13:03:07.947Z,0.90
2023-04-27T13:04:08.225Z,0.90
2023-04-27T13:05:07.991Z,0.80
2023-04-27T13:06:08.197Z,0.70
2023-04-27T13:07:07.796Z,0.80
2023-04-27T13:08:08.002Z,0.70
2023-04-27T13:09:07.796Z,0.80
2023-04-27T13:10:07.928Z,0.80
2023-04-27T13:11:07.750Z,1.00
2023-04-27T13:12:07.926Z,0.90
2023-04-27T13:13:07.729Z,0.70
2023-04-27T13:14:08.002Z,0.80
2023-04-27T13:15:07.710Z,0.90
2023-04-27T13:16:08.145Z,0.80
2023-04-27T13:17:07.773Z,0.60
2023-04-27T13:18:07.753Z,0.80
2023-04-27T13:19:07.822Z,0.60
2023-04-27T13:20:07.655Z,0.50
2023-04-27T13:21:07.693Z,0.60